Time;durP1;ratioP1;P1;durP2;ratioP2;P2;SDS_P1;SDS_P2;PMS_P1;PMS_P2;Temp;Humidity;BMP_temperature;BMP_pressure;BME280_temperature;BME280_humidity;BME280_pressure;Samples;Min_cycle;Max_cycle;Signal;HPM_P1;HPM_P2
2023/05/05 00:00:14;;;;;;;15.27;11.52;;;;;;;8.55;88.31;93720.25;515769;28;1502;-56
2023/05/05 00:00:30;;;;;;;15.32;11.63;;;;;;;8.71;88.29;93747.44;515710;28;871;-56
2023/05/05 00:00:45;;;;;;;14.73;11.32;;;;;;;8.39;88.31;93700.00;515814;28;817;-56
2023/05/05 00:01:01;;;;;;;15.32;11.32;;;;;;;8.72;88.48;93743.44;515769;28;1070;-55
2023/05/05 00:01:17;;;;;;;15.95;11.52;;;;;;;8.72;88.21;93735.16;515768;28;1093;-56
2023/05/05 00:01:32;;;;;;;13.87;11.00;;;;;;;8.72;88.30;93739.94;515818;28;884;-55
2023/05/05 00:01:48;;;;;;;13.90;10.68;;;;;;;8.74;88.21;93746.41;515861;28;893;-56
2023/05/05 00:02:03;;;;;;;14.43;11.23;;;;;;;8.73;88.43;93739.38;515774;28;880;-54
2023/05/05 00:02:18;;;;;;;15.03;11.37;;;;;;;8.73;88.24;93744.91;515782;28;892;-55
2023/05/05 00:02:34;;;;;;;15.48;11.43;;;;;;;8.74;88.46;93742.88;515695;28;881;-56
2023/05/05 00:02:49;;;;;;;15.37;12.10;;;;;;;8.75;88.45;93744.38;515812;28;1021;-56
2023/05/05 00:03:04;;;;;;;15.33;11.43;;;;;;;8.76;88.30;93748.59;515858;28;848;-55
2023/05/05 00:03:21;;;;;;;15.70;11.30;;;;;;;8.71;88.20;93732.94;515726;28;1634;-56
2023/05/05 00:03:36;;;;;;;15.30;11.23;;;;;;;8.66;88.39;93742.06;515707;28;896;-55
2023/05/05 00:03:52;;;;;;;15.80;11.10;;;;;;;8.43;88.63;93707.94;515795;28;775;-55
2023/05/05 00:04:07;;;;;;;15.95;11.15;;;;;;;8.62;88.92;93736.13;515844;28;806;-55
2023/05/05 00:04:23;;;;;;;17.13;11.20;;;;;;;8.64;88.90;93745.31;515731;28;903;-56
2023/05/05 00:04:38;;;;;;;17.35;11.73;;;;;;;8.65;88.65;93741.31;515688;28;902;-56
2023/05/05 00:04:53;;;;;;;14.90;11.10;;;;;;;8.67;89.16;93738.75;515813;28;842;-55
2023/05/05 00:05:09;;;;;;;15.73;11.00;;;;;;;8.67;89.05;93738.75;515811;28;785;-56
2023/05/05 00:05:24;;;;;;;16.80;11.63;;;;;;;8.70;88.92;93742.47;515742;28;1529;-55
2023/05/05 00:05:41;;;;;;;19.48;12.07;;;;;;;8.71;88.88;93736.44;515788;28;853;-56
2023/05/05 00:05:56;;;;;;;16.85;11.25;;;;;;;8.71;89.17;93739.19;515763;28;905;-55
2023/05/05 00:06:12;;;;;;;13.40;10.90;;;;;;;8.68;88.95;93734.75;515767;28;852;-57
2023/05/05 00:06:27;;;;;;;16.47;11.73;;;;;;;8.67;89.23;93733.25;515766;28;886;-56
2023/05/05 00:06:43;;;;;;;16.48;11.70;;;;;;;8.69;88.96;93738.22;515706;28;789;-56
2023/05/05 00:06:58;;;;;;;15.13;11.70;;;;;;;8.69;89.40;93732.72;515833;28;821;-55
2023/05/05 00:07:13;;;;;;;16.53;12.23;;;;;;;8.71;89.38;93730.19;515735;28;794;-56
2023/05/05 00:07:29;;;;;;;18.30;12.48;;;;;;;8.70;89.21;93734.22;515808;28;789;-55
2023/05/05 00:07:44;;;;;;;18.40;12.73;;;;;;;8.66;89.37;93734.53;515607;28;1910;-53
2023/05/05 00:07:59;;;;;;;17.80;12.80;;;;;;;8.64;89.10;93728.09;515681;28;849;-56
2023/05/05 00:08:15;;;;;;;17.50;12.05;;;;;;;8.63;89.49;93740.34;515823;28;790;-56
2023/05/05 00:08:31;;;;;;;17.50;11.77;;;;;;;8.59;89.56;93731.66;515681;28;829;-56
2023/05/05 00:08:46;;;;;;;17.60;11.63;;;;;;;8.57;89.75;93729.47;515659;28;950;-55
2023/05/05 00:09:02;;;;;;;17.03;11.60;;;;;;;8.58;89.73;93730.91;515751;28;781;-55
2023/05/05 00:09:17;;;;;;;15.55;11.88;;;;;;;8.59;90.11;93737.91;515804;28;829;-55
2023/05/05 00:09:32;;;;;;;16.23;11.50;;;;;;;8.60;89.81;93739.38;515708;28;1095;-55
2023/05/05 00:09:48;;;;;;;16.67;11.37;;;;;;;8.48;89.94;93727.13;515740;28;766;-55
2023/05/05 00:10:04;;;;;;;16.10;11.40;;;;;;;8.45;90.24;93735.66;515513;28;777;-55
2023/05/05 00:10:19;;;;;;;15.20;10.98;;;;;;;8.38;90.32;93734.31;515603;28;812;-56
2023/05/05 00:10:35;;;;;;;14.37;10.63;;;;;;;8.32;90.23;93734.41;515586;28;833;-55
2023/05/05 00:10:51;;;;;;;15.20;10.35;;;;;;;8.04;90.43;93703.84;515651;28;874;-55
2023/05/05 00:11:07;;;;;;;14.20;9.32;;;;;;;8.07;90.59;93741.31;515597;28;1054;-55
2023/05/05 00:11:22;;;;;;;12.38;8.88;;;;;;;7.99;90.93;93723.22;515574;28;1113;-55
2023/05/05 00:11:38;;;;;;;12.07;8.98;;;;;;;8.13;90.95;93738.47;515608;28;893;-56
2023/05/05 00:11:53;;;;;;;12.10;8.93;;;;;;;8.11;91.00;93735.50;515566;28;908;-56
2023/05/05 00:12:08;;;;;;;11.33;8.87;;;;;;;8.04;90.91;93739.59;515842;28;852;-54
2023/05/05 00:12:24;;;;;;;11.93;8.60;;;;;;;7.99;90.87;93739.72;515781;28;785;-56
2023/05/05 00:12:40;;;;;;;11.93;8.30;;;;;;;7.90;90.94;93734.59;515689;28;972;-56
2023/05/05 00:12:55;;;;;;;9.63;7.68;;;;;;;7.83;90.68;93735.22;515822;28;764;-55
2023/05/05 00:13:10;;;;;;;9.53;6.67;;;;;;;7.83;90.91;93730.47;515828;28;844;-55
2023/05/05 00:13:26;;;;;;;8.90;6.00;;;;;;;7.87;91.00;93739.13;515772;28;843;-55
2023/05/05 00:13:41;;;;;;;8.90;6.90;;;;;;;7.91;90.90;93739.56;515705;28;861;-55
2023/05/05 00:13:56;;;;;;;11.87;8.73;;;;;;;7.95;90.69;93736.53;515834;28;1118;-56
2023/05/05 00:14:12;;;;;;;12.50;8.77;;;;;;;8.00;90.52;93735.69;515683;28;906;-56
2023/05/05 00:14:28;;;;;;;11.85;7.80;;;;;;;8.04;90.53;93738.84;515832;28;833;-56
2023/05/05 00:14:43;;;;;;;11.57;7.90;;;;;;;8.05;90.49;93734.84;515697;28;810;-56
2023/05/05 00:14:58;;;;;;;10.47;8.03;;;;;;;7.93;90.47;93739.78;515788;28;833;-55
2023/05/05 00:15:14;;;;;;;11.00;7.97;;;;;;;7.86;90.42;93734.88;515803;28;774;-55
2023/05/05 00:15:29;;;;;;;10.73;7.68;;;;;;;7.87;90.22;93735.63;515865;28;766;-55
2023/05/05 00:15:46;;;;;;;11.23;8.47;;;;;;;7.91;90.47;93741.56;515565;28;1276;-55
2023/05/05 00:16:01;;;;;;;13.48;10.02;;;;;;;7.83;90.56;93721.47;515716;28;841;-56
2023/05/05 00:16:17;;;;;;;12.80;9.87;;;;;;;7.95;90.92;93733.78;515842;28;774;-56
2023/05/05 00:16:32;;;;;;;12.25;9.75;;;;;;;7.98;90.93;93732.72;515695;28;953;-56
2023/05/05 00:16:47;;;;;;;13.67;9.40;;;;;;;8.02;90.78;93738.63;515737;28;972;-53
2023/05/05 00:17:03;;;;;;;12.82;8.55;;;;;;;8.02;90.97;93733.88;515723;28;881;-56
2023/05/05 00:17:18;;;;;;;11.80;8.70;;;;;;;8.03;91.02;93737.38;515792;28;814;-55
2023/05/05 00:17:34;;;;;;;11.40;8.80;;;;;;;8.04;90.91;93736.09;515714;28;848;-55
2023/05/05 00:17:49;;;;;;;11.13;8.52;;;;;;;8.05;91.00;93732.84;515786;28;766;-54
2023/05/05 00:18:04;;;;;;;11.13;8.27;;;;;;;8.06;90.71;93733.56;515752;28;937;-54
2023/05/05 00:18:20;;;;;;;9.47;7.67;;;;;;;8.04;90.57;93736.09;515752;28;873;-55
2023/05/05 00:18:36;;;;;;;8.32;7.32;;;;;;;7.87;90.33;93713.66;515658;28;834;-55
2023/05/05 00:18:51;;;;;;;8.23;7.20;;;;;;;7.95;89.99;93736.53;515516;28;1013;-52
2023/05/05 00:19:07;;;;;;;8.60;7.27;;;;;;;7.93;90.03;93734.28;515679;28;837;-56
2023/05/05 00:19:22;;;;;;;9.50;7.60;;;;;;;7.95;90.10;93737.25;515623;28;830;-56
2023/05/05 00:19:37;;;;;;;9.33;7.50;;;;;;;7.98;90.04;93729.97;515603;28;766;-55
2023/05/05 00:19:53;;;;;;;9.30;7.77;;;;;;;7.98;89.70;93735.47;515414;28;2392;-54
2023/05/05 00:20:08;;;;;;;8.98;7.72;;;;;;;7.97;89.77;93731.25;515588;28;868;-56
2023/05/05 00:20:24;;;;;;;8.53;7.47;;;;;;;7.99;89.57;93736.97;515551;28;835;-56
2023/05/05 00:20:39;;;;;;;9.25;7.57;;;;;;;8.02;89.58;93730.41;515525;28;876;-55
2023/05/05 00:20:55;;;;;;;9.47;7.90;;;;;;;8.04;89.47;93734.09;515798;28;856;-53
2023/05/05 00:21:10;;;;;;;11.17;8.50;;;;;;;8.06;89.21;93734.31;516140;28;860;-55
2023/05/05 00:21:26;;;;;;;11.23;8.37;;;;;;;8.08;89.15;93736.53;516169;28;840;-56
2023/05/05 00:21:42;;;;;;;10.18;8.00;;;;;;;8.10;88.64;93737.50;516185;28;850;-55
2023/05/05 00:21:57;;;;;;;10.23;7.90;;;;;;;8.12;88.79;93737.72;516164;28;843;-54
2023/05/05 00:22:12;;;;;;;10.27;7.80;;;;;;;8.14;88.56;93740.69;516112;28;891;-56
2023/05/05 00:22:28;;;;;;;9.37;7.17;;;;;;;8.11;88.29;93735.50;516204;28;852;-54
2023/05/05 00:22:43;;;;;;;7.88;6.30;;;;;;;7.92;87.94;93715.56;516047;28;908;-56
2023/05/05 00:22:58;;;;;;;7.23;5.80;;;;;;;8.06;87.73;93736.31;516117;28;1211;-56
2023/05/05 00:23:14;;;;;;;6.77;5.50;;;;;;;8.06;87.61;93737.06;516146;28;900;-56
2023/05/05 00:23:30;;;;;;;6.20;5.32;;;;;;;8.03;87.37;93740.13;516172;28;882;-56
2023/05/05 00:23:45;;;;;;;8.00;5.45;;;;;;;7.90;87.32;93738.09;516071;28;888;-54
2023/05/05 00:24:01;;;;;;;7.67;5.03;;;;;;;7.85;87.27;93738.91;516082;28;845;-55
2023/05/05 00:24:16;;;;;;;5.87;5.10;;;;;;;7.70;87.55;93716.69;516170;28;920;-55
2023/05/05 00:24:32;;;;;;;6.65;5.70;;;;;;;7.86;87.51;93728.69;516086;28;860;-55
2023/05/05 00:24:47;;;;;;;7.68;5.28;;;;;;;7.87;87.39;93735.63;516107;28;1662;-55
2023/05/05 00:25:03;;;;;;;8.67;5.27;;;;;;;7.88;87.49;93735.13;516130;28;943;-55
2023/05/05 00:25:19;;;;;;;7.50;5.50;;;;;;;7.91;87.34;93734.06;516129;28;922;-55
2023/05/05 00:25:34;;;;;;;6.53;5.33;;;;;;;7.92;87.40;93727.31;516152;28;896;-55
2023/05/05 00:25:49;;;;;;;7.47;5.95;;;;;;;7.94;87.54;93733.03;516087;28;1547;-56
2023/05/05 00:26:05;;;;;;;9.00;6.23;;;;;;;7.72;87.23;93708.66;516203;28;844;-56
2023/05/05 00:26:20;;;;;;;9.68;5.95;;;;;;;7.79;87.07;93740.28;516172;28;852;-54
2023/05/05 00:26:36;;;;;;;9.47;5.90;;;;;;;7.63;87.28;93720.03;516073;28;751;-54
2023/05/05 00:26:51;;;;;;;8.45;5.82;;;;;;;7.65;87.82;93737.47;516153;28;813;-55
2023/05/05 00:27:06;;;;;;;7.83;5.83;;;;;;;7.65;87.75;93734.72;516148;28;939;-54
2023/05/05 00:27:22;;;;;;;7.80;5.70;;;;;;;7.67;87.97;93738.97;516141;28;789;-54
2023/05/05 00:27:37;;;;;;;7.82;5.65;;;;;;;7.65;88.25;93737.47;516081;28;1922;-56
2023/05/05 00:27:52;;;;;;;7.77;5.67;;;;;;;7.69;88.20;93730.94;516164;28;860;-56
2023/05/05 00:28:08;;;;;;;6.60;5.90;;;;;;;7.72;88.23;93735.38;516162;28;873;-56
2023/05/05 00:28:23;;;;;;;8.25;6.00;;;;;;;7.71;88.21;93722.91;516061;28;870;-56
2023/05/05 00:28:39;;;;;;;8.43;5.93;;;;;;;7.81;88.33;93732.25;515993;28;860;-56
2023/05/05 00:28:54;;;;;;;8.25;6.13;;;;;;;7.83;88.02;93729.72;516107;28;1090;-55
2023/05/05 00:29:10;;;;;;;9.10;6.03;;;;;;;7.85;87.96;93730.69;516150;28;860;-54
2023/05/05 00:29:25;;;;;;;7.15;5.55;;;;;;;7.85;88.16;93735.41;516140;28;902;-55
2023/05/05 00:29:40;;;;;;;6.63;5.87;;;;;;;7.86;88.04;93739.66;516093;28;849;-54
2023/05/05 00:29:56;;;;;;;8.53;6.67;;;;;;;7.85;88.10;93732.69;516160;28;793;-56
2023/05/05 00:30:12;;;;;;;10.73;7.72;;;;;;;7.73;88.41;93715.63;516146;28;849;-56
2023/05/05 00:30:28;;;;;;;12.25;8.65;;;;;;;7.85;89.03;93733.41;516145;28;982;-53
2023/05/05 00:30:43;;;;;;;11.70;8.60;;;;;;;7.88;89.16;93734.38;515780;28;1091;-55
2023/05/05 00:30:59;;;;;;;10.38;8.23;;;;;;;7.89;89.34;93735.84;516103;28;880;-56
2023/05/05 00:31:15;;;;;;;10.43;7.28;;;;;;;7.88;89.69;93737.13;516098;28;927;-53
2023/05/05 00:31:30;;;;;;;12.45;6.93;;;;;;;7.89;90.05;93727.59;516164;28;1044;-56
2023/05/05 00:31:46;;;;;;;13.23;7.33;;;;;;;7.90;90.00;93727.09;516088;28;1370;-55
2023/05/05 00:32:01;;;;;;;10.32;7.10;;;;;;;7.91;90.01;93736.81;516155;28;793;-56
2023/05/05 00:32:16;;;;;;;8.23;6.77;;;;;;;7.92;90.12;93737.56;517191;28;1107;-55
2023/05/05 00:32:32;;;;;;;7.60;6.50;;;;;;;7.92;90.04;93737.56;518083;28;871;-56
2023/05/05 00:32:48;;;;;;;8.25;6.50;;;;;;;7.85;89.97;93730.69;518184;28;923;-55
2023/05/05 00:33:03;;;;;;;8.32;6.50;;;;;;;7.88;89.98;93737.13;518110;28;979;-56
2023/05/05 00:33:18;;;;;;;8.63;6.50;;;;;;;7.90;90.04;93734.59;518204;28;765;-56
2023/05/05 00:33:34;;;;;;;8.77;6.07;;;;;;;7.90;90.00;93735.34;518159;28;822;-54
2023/05/05 00:33:49;;;;;;;7.95;6.07;;;;;;;7.90;89.94;93729.09;518104;28;789;-56
2023/05/05 00:34:05;;;;;;;7.47;6.23;;;;;;;7.92;90.05;93741.06;518211;28;837;-56
2023/05/05 00:34:20;;;;;;;8.00;6.60;;;;;;;7.94;89.81;93735.03;518115;28;1032;-56
2023/05/05 00:34:36;;;;;;;8.73;7.20;;;;;;;7.97;89.65;93736.75;518060;28;860;-55
2023/05/05 00:34:52;;;;;;;8.35;6.95;;;;;;;7.99;89.80;93734.22;518045;28;951;-56
2023/05/05 00:35:08;;;;;;;8.98;7.07;;;;;;;8.00;89.76;93733.69;518184;28;870;-56
2023/05/05 00:35:23;;;;;;;10.23;7.80;;;;;;;7.98;89.69;93729.97;518090;28;828;-55
2023/05/05 00:35:39;;;;;;;10.18;7.57;;;;;;;7.92;89.53;93721.06;518213;28;793;-54
2023/05/05 00:35:54;;;;;;;10.57;7.50;;;;;;;7.98;89.71;93736.22;518128;28;844;-56
2023/05/05 00:36:09;;;;;;;11.23;8.17;;;;;;;8.01;89.58;93729.66;518153;28;1326;-56
2023/05/05 00:36:25;;;;;;;11.63;8.50;;;;;;;7.92;89.64;93721.06;518090;28;954;-56
2023/05/05 00:36:41;;;;;;;11.20;8.07;;;;;;;8.03;89.55;93732.63;518082;28;1510;-54
2023/05/05 00:36:56;;;;;;;9.75;7.80;;;;;;;8.06;89.69;93730.81;518089;28;955;-54
2023/05/05 00:37:12;;;;;;;9.63;7.87;;;;;;;8.10;89.66;93729.25;518141;28;806;-55
2023/05/05 00:37:27;;;;;;;10.27;7.77;;;;;;;8.09;89.63;93729.78;518163;28;1018;-55
2023/05/05 00:37:43;;;;;;;10.82;8.00;;;;;;;8.02;89.37;93720.16;518099;28;901;-56
2023/05/05 00:37:58;;;;;;;10.75;8.25;;;;;;;8.08;89.55;93736.53;518165;28;870;-55
2023/05/05 00:38:13;;;;;;;11.83;8.83;;;;;;;8.06;89.45;93728.06;518149;28;836;-53
2023/05/05 00:38:29;;;;;;;12.80;9.23;;;;;;;8.07;89.68;93733.06;518166;28;810;-55
2023/05/05 00:38:44;;;;;;;13.68;9.45;;;;;;;8.08;89.47;93731.03;518029;28;880;-55
2023/05/05 00:39:00;;;;;;;12.87;9.07;;;;;;;8.08;89.62;93731.03;518088;28;868;-56
2023/05/05 00:39:15;;;;;;;12.20;8.60;;;;;;;8.12;89.53;93732.22;518211;28;811;-55
2023/05/05 00:39:32;;;;;;;12.07;8.25;;;;;;;8.11;89.64;93730.75;518130;28;905;-56
2023/05/05 00:39:47;;;;;;;10.05;7.97;;;;;;;8.14;89.58;93732.41;518201;28;842;-56
2023/05/05 00:40:03;;;;;;;10.50;8.20;;;;;;;8.15;89.79;93733.16;518123;28;788;-56
2023/05/05 00:40:18;;;;;;;10.70;8.27;;;;;;;8.15;89.62;93730.44;518195;28;831;-55
2023/05/05 00:40:35;;;;;;;11.25;8.35;;;;;;;8.09;89.45;93725.03;517975;28;946;-57
2023/05/05 00:40:50;;;;;;;11.68;8.18;;;;;;;8.13;89.68;93730.22;518118;28;868;-56
2023/05/05 00:41:06;;;;;;;13.43;8.30;;;;;;;8.07;89.47;93730.31;518152;28;838;-56
2023/05/05 00:41:21;;;;;;;14.07;8.80;;;;;;;8.07;89.84;93726.81;518151;28;826;-54
2023/05/05 00:41:36;;;;;;;12.75;9.23;;;;;;;8.09;89.88;93729.78;518155;28;848;-56
2023/05/05 00:41:52;;;;;;;12.70;9.67;;;;;;;8.09;90.00;93729.78;516105;28;1142;-55
2023/05/05 00:42:07;;;;;;;13.33;9.50;;;;;;;8.10;90.04;93726.50;516166;28;862;-55
2023/05/05 00:42:23;;;;;;;13.75;9.50;;;;;;;8.12;90.07;93723.25;516034;28;853;-55
2023/05/05 00:42:40;;;;;;;15.20;9.68;;;;;;;8.16;90.00;93731.91;516058;28;907;-55
2023/05/05 00:42:55;;;;;;;13.18;9.32;;;;;;;8.16;89.97;93729.91;516091;28;866;-56
2023/05/05 00:43:11;;;;;;;13.20;9.47;;;;;;;8.17;90.09;93731.38;516079;28;855;-56
2023/05/05 00:43:27;;;;;;;15.25;10.07;;;;;;;8.14;89.79;93732.41;516144;28;891;-54
2023/05/05 00:43:42;;;;;;;16.03;10.20;;;;;;;8.10;90.12;93736.78;516097;28;863;-55
2023/05/05 00:43:57;;;;;;;15.70;9.75;;;;;;;8.04;90.14;93731.34;516004;28;1015;-55
2023/05/05 00:44:13;;;;;;;14.70;10.20;;;;;;;8.04;90.47;93727.84;515931;28;902;-56
2023/05/05 00:44:39;;;;;;;15.63;10.87;;;;;;;7.96;90.38;93733.25;515979;28;860;-55
2023/05/05 00:44:54;;;;;;;15.60;10.88;;;;;;;7.92;90.56;93726.56;515869;28;891;-55
2023/05/05 00:45:10;;;;;;;13.85;10.05;;;;;;;7.91;91.01;93731.31;515934;28;880;-56
2023/05/05 00:45:26;;;;;;;12.90;9.65;;;;;;;7.87;90.95;93717.16;515926;28;803;-55
2023/05/05 00:45:46;;;;;;;12.10;9.07;;;;;;;7.94;91.18;93730.28;515946;28;758;-55
2023/05/05 00:46:08;;;;;;;11.98;9.05;;;;;;;7.97;91.14;93728.50;514250;28;967;-56
2023/05/05 00:46:28;;;;;;;12.70;9.38;;;;;;;7.99;91.19;93731.47;515938;28;864;-55
2023/05/05 00:46:44;;;;;;;12.93;9.48;;;;;;;8.01;90.92;93728.94;515859;28;856;-56
2023/05/05 00:46:59;;;;;;;13.93;9.90;;;;;;;8.04;91.25;93725.09;515914;28;865;-56
2023/05/05 00:47:15;;;;;;;11.80;9.37;;;;;;;8.07;90.99;93726.81;515947;28;905;-56
2023/05/05 00:47:31;;;;;;;11.70;8.85;;;;;;;8.09;91.10;93729.78;513869;28;831;-56
2023/05/05 00:47:56;;;;;;;12.73;9.57;;;;;;;8.13;90.86;93730.97;513849;28;1924;-54
2023/05/05 00:48:12;;;;;;;12.75;9.50;;;;;;;7.96;90.49;93705.75;512169;28;920;-56
2023/05/05 00:48:29;;;;;;;12.60;9.32;;;;;;;8.18;90.51;93730.13;513922;28;806;-56
2023/05/05 00:48:44;;;;;;;13.38;9.13;;;;;;;8.18;90.45;93721.88;513856;28;886;-56
2023/05/05 00:49:00;;;;;;;15.27;9.00;;;;;;;8.16;90.29;93718.16;513789;28;864;-56
2023/05/05 00:49:15;;;;;;;13.55;9.18;;;;;;;8.23;90.18;93717.53;511996;29;839;-55
2023/05/05 00:49:32;;;;;;;11.30;8.93;;;;;;;8.24;90.18;93725.25;513850;28;924;-57
2023/05/05 00:49:47;;;;;;;13.65;9.50;;;;;;;8.25;89.94;93726.00;513958;28;892;-56
2023/05/05 00:50:05;;;;;;;14.83;10.07;;;;;;;8.25;89.94;93724.00;514614;28;870;-56
2023/05/05 00:50:27;;;;;;;12.18;9.30;;;;;;;8.25;89.76;93729.50;515899;28;869;-56
2023/05/05 00:50:43;;;;;;;15.00;9.40;;;;;;;8.27;90.02;93726.25;515747;28;918;-56
2023/05/05 00:50:59;;;;;;;15.77;10.07;;;;;;;8.25;89.64;93724.00;515886;28;911;-55
2023/05/05 00:51:15;;;;;;;13.23;10.27;;;;;;;8.26;89.78;93724.75;515827;28;868;-56
2023/05/05 00:51:31;;;;;;;12.90;10.15;;;;;;;8.27;89.80;93731.75;515849;28;902;-55
2023/05/05 00:51:46;;;;;;;13.00;9.63;;;;;;;8.28;89.63;93725.72;515892;28;908;-56
2023/05/05 00:52:02;;;;;;;12.52;9.50;;;;;;;8.32;89.81;93730.91;515904;28;805;-55
2023/05/05 00:52:18;;;;;;;11.38;9.18;;;;;;;8.32;89.46;93728.16;515673;28;863;-56
2023/05/05 00:52:36;;;;;;;12.13;9.43;;;;;;;8.32;89.62;93723.41;515652;28;979;-55
2023/05/05 00:52:54;;;;;;;12.38;9.80;;;;;;;8.33;89.67;93727.63;513870;28;817;-56
2023/05/05 00:53:10;;;;;;;12.40;9.85;;;;;;;8.28;89.44;93713.97;513925;28;847;-56
2023/05/05 00:53:26;;;;;;;13.23;9.63;;;;;;;8.30;89.34;93725.94;513934;28;827;-56
2023/05/05 00:53:43;;;;;;;14.83;9.43;;;;;;;8.25;89.21;93721.25;513914;28;817;-54
2023/05/05 00:54:00;;;;;;;14.68;9.75;;;;;;;8.18;89.55;93732.13;511885;29;902;-56
2023/05/05 00:54:15;;;;;;;14.48;10.70;;;;;;;8.10;89.75;93732.00;513467;28;937;-56
2023/05/05 00:54:30;;;;;;;14.63;10.73;;;;;;;8.09;89.85;93727.03;513872;28;850;-56
2023/05/05 00:54:46;;;;;;;16.92;10.30;;;;;;;8.10;89.94;93729.25;512856;28;1040;-56
2023/05/05 00:55:02;;;;;;;17.67;10.37;;;;;;;8.13;90.03;93728.22;513880;28;901;-55
2023/05/05 00:55:18;;;;;;;15.73;9.98;;;;;;;8.11;90.24;93722.50;513965;28;1168;-55
2023/05/05 00:55:34;;;;;;;14.55;10.43;;;;;;;8.01;90.24;93713.16;513808;28;842;-56
2023/05/05 00:55:50;;;;;;;13.35;10.05;;;;;;;8.12;90.31;93729.47;513946;28;859;-56
2023/05/05 00:56:05;;;;;;;14.90;9.75;;;;;;;8.13;90.63;93728.22;512494;28;865;-56
2023/05/05 00:56:21;;;;;;;14.82;10.13;;;;;;;8.14;90.58;93728.97;513870;28;829;-55
2023/05/05 00:56:36;;;;;;;14.23;10.17;;;;;;;8.17;90.58;93719.63;514430;28;1624;-56
2023/05/05 00:56:52;;;;;;;14.50;10.10;;;;;;;8.19;90.58;93728.09;515893;28;1642;-56
2023/05/05 00:57:07;;;;;;;12.67;9.60;;;;;;;8.21;90.36;93725.56;515975;28;808;-56
2023/05/05 00:57:24;;;;;;;13.20;9.35;;;;;;;8.21;90.35;93726.31;515913;28;818;-55
2023/05/05 00:57:39;;;;;;;17.00;10.23;;;;;;;8.24;90.37;93719.03;515870;28;914;-56
2023/05/05 00:57:56;;;;;;;14.45;10.00;;;;;;;8.23;90.43;93723.03;515362;28;1103;-55
2023/05/05 00:58:12;;;;;;;13.52;9.65;;;;;;;8.26;90.33;93722.00;513994;28;841;-56
2023/05/05 00:58:28;;;;;;;14.37;9.83;;;;;;;8.25;90.29;93723.25;514111;28;852;-56
2023/05/05 00:58:43;;;;;;;15.02;9.82;;;;;;;8.08;90.04;93704.28;513767;28;937;-56
2023/05/05 00:58:59;;;;;;;15.65;9.98;;;;;;;8.20;90.00;93722.09;513811;28;869;-56
2023/05/05 00:59:15;;;;;;;14.07;9.52;;;;;;;8.19;90.26;93717.84;513913;28;864;-55
2023/05/05 00:59:32;;;;;;;14.77;9.53;;;;;;;8.20;89.94;93719.34;513856;28;853;-55
2023/05/05 00:59:48;;;;;;;13.63;9.50;;;;;;;8.17;89.91;93716.88;513932;28;888;-56
2023/05/05 01:00:04;;;;;;;12.30;9.38;;;;;;;8.13;90.08;93711.72;513950;28;857;-56
2023/05/05 01:00:20;;;;;;;12.75;9.73;;;;;;;8.14;90.23;93713.19;513819;28;849;-56
2023/05/05 01:00:35;;;;;;;12.80;9.40;;;;;;;8.13;90.32;93711.72;513953;28;786;-53
2023/05/05 01:00:51;;;;;;;12.25;9.25;;;;;;;8.17;90.54;93716.88;514080;28;788;-55
2023/05/05 01:01:07;;;;;;;12.02;9.38;;;;;;;8.19;90.38;93711.59;514020;28;1249;-55
2023/05/05 01:01:22;;;;;;;12.03;9.40;;;;;;;8.19;90.13;93712.34;514048;28;825;-56
2023/05/05 01:01:38;;;;;;;12.60;9.10;;;;;;;8.21;90.31;93711.81;514112;28;845;-55
2023/05/05 01:01:54;;;;;;;13.20;9.20;;;;;;;8.07;90.31;93691.81;514055;28;870;-54
2023/05/05 01:02:09;;;;;;;13.38;9.45;;;;;;;8.24;90.07;93716.28;514014;28;827;-55
2023/05/05 01:02:24;;;;;;;12.90;9.32;;;;;;;8.25;90.24;93709.50;514068;28;787;-55
2023/05/05 01:02:40;;;;;;;12.70;9.40;;;;;;;8.27;89.95;93713.22;513972;28;841;-54
2023/05/05 01:02:55;;;;;;;13.00;9.77;;;;;;;8.26;89.73;93711.00;514069;28;887;-56
2023/05/05 01:03:14;;;;;;;10.90;9.07;;;;;;;8.27;90.03;93704.25;515829;28;920;-55
2023/05/05 01:03:29;;;;;;;9.25;7.90;;;;;;;8.26;89.53;93716.50;515905;28;859;-56
2023/05/05 01:03:44;;;;;;;10.38;7.75;;;;;;;8.27;89.39;93715.97;513860;28;845;-55
2023/05/05 01:04:00;;;;;;;10.43;7.90;;;;;;;8.23;89.46;93721.03;513807;28;810;-56
2023/05/05 01:04:16;;;;;;;10.40;7.83;;;;;;;8.07;89.09;93715.81;513940;28;833;-56
2023/05/05 01:04:31;;;;;;;11.73;7.60;;;;;;;7.92;89.23;93718.31;513815;28;863;-57
2023/05/05 01:04:46;;;;;;;12.90;7.77;;;;;;;7.80;89.11;93706.00;513873;28;975;-54
2023/05/05 01:05:02;;;;;;;12.98;8.10;;;;;;;7.77;89.42;93716.06;513862;28;1102;-55
2023/05/05 01:05:19;;;;;;;11.95;8.43;;;;;;;7.79;89.66;93713.53;513904;28;831;-56
2023/05/05 01:05:57;;;;;;;11.70;8.02;;;;;;;7.84;89.77;93707.19;513926;28;809;-55
2023/05/05 01:06:34;;;;;;;8.57;6.80;;;;;;;7.85;89.97;93721.69;511844;29;864;-55
2023/05/05 01:07:13;;;;;;;9.10;6.75;;;;;;;7.65;89.69;93712.75;511898;28;817;-56
2023/05/05 01:07:52;;;;;;;8.02;6.20;;;;;;;7.53;89.68;93714.19;511883;29;823;-55
2023/05/05 01:08:13;;;;;;;9.25;6.60;;;;;;;7.55;89.70;93719.16;510929;29;885;-55
2023/05/05 01:08:40;;;;;;;10.25;7.03;;;;;;;7.58;90.07;93710.59;511909;28;1003;-55
2023/05/05 01:09:20;;;;;;;8.68;6.78;;;;;;;7.67;89.83;93711.50;509897;29;845;-56
2023/05/05 01:09:59;;;;;;;12.18;7.10;;;;;;;7.76;89.58;93709.06;511861;29;860;-56
2023/05/05 01:10:33;;;;;;;10.07;7.20;;;;;;;7.79;89.26;93710.03;511888;28;829;-54
2023/05/05 01:10:54;;;;;;;10.05;7.70;;;;;;;7.76;89.29;93714.56;512493;28;853;-56
2023/05/05 01:11:45;;;;;;;11.07;8.27;;;;;;;7.79;88.90;93708.03;511847;29;1098;-56
2023/05/05 01:12:08;;;;;;;10.45;7.65;;;;;;;7.83;88.68;93713.22;511777;29;869;-56
2023/05/05 01:12:53;;;;;;;8.88;7.20;;;;;;;7.89;88.62;93708.38;513860;28;943;-55
2023/05/05 01:13:36;;;;;;;8.73;7.47;;;;;;;7.93;88.60;93708.78;513985;28;814;-55
2023/05/05 01:14:04;;;;;;;10.20;7.28;;;;;;;7.89;88.49;93708.38;513850;28;886;-53
2023/05/05 01:14:24;;;;;;;10.32;7.55;;;;;;;7.89;88.45;93702.88;513825;28;819;-56
2023/05/05 01:14:44;;;;;;;8.30;6.90;;;;;;;7.91;88.57;93703.09;511753;29;912;-55
2023/05/05 01:15:12;;;;;;;8.32;7.13;;;;;;;7.93;88.71;93711.53;509938;29;1040;-55
2023/05/05 01:15:34;;;;;;;10.32;7.70;;;;;;;7.89;88.64;93711.88;507833;29;1016;-55
2023/05/05 01:15:52;;;;;;;10.52;8.15;;;;;;;7.73;88.40;93695.66;509461;29;852;-55
2023/05/05 01:16:17;;;;;;;10.40;7.78;;;;;;;7.80;88.62;93708.75;509936;29;827;-54
2023/05/05 01:16:33;;;;;;;9.27;7.47;;;;;;;7.81;88.66;93711.00;511044;28;1281;-55
2023/05/05 01:16:57;;;;;;;10.30;7.90;;;;;;;7.85;88.70;93711.44;512398;28;924;-55
2023/05/05 01:17:17;;;;;;;9.43;7.20;;;;;;;7.87;88.87;93710.91;513803;28;839;-56
2023/05/05 01:17:37;;;;;;;9.43;7.40;;;;;;;7.90;88.76;93712.63;511833;28;921;-54
2023/05/05 01:18:17;;;;;;;10.85;7.32;;;;;;;7.91;88.77;93703.09;509906;29;825;-55
2023/05/05 01:18:40;;;;;;;10.80;7.80;;;;;;;7.91;88.44;93703.84;511505;29;926;-56
2023/05/05 01:19:04;;;;;;;10.00;7.78;;;;;;;7.86;88.75;93698.44;513877;28;822;-55
2023/05/05 01:19:50;;;;;;;11.15;8.25;;;;;;;7.89;88.77;93711.13;513759;28;950;-55
2023/05/05 01:20:41;;;;;;;11.40;7.75;;;;;;;7.73;88.42;93710.13;513836;28;835;-55
2023/05/05 01:21:08;;;;;;;11.00;7.78;;;;;;;7.51;89.14;93704.97;511673;28;1520;-56
2023/05/05 01:21:40;;;;;;;10.90;7.90;;;;;;;7.12;90.38;93704.81;513849;28;868;-55
2023/05/05 01:21:59;;;;;;;12.05;7.60;;;;;;;7.08;90.89;93707.81;513929;28;825;-54
2023/05/05 01:22:17;;;;;;;11.05;7.95;;;;;;;7.13;91.17;93712.50;514035;28;934;-56
2023/05/05 01:22:44;;;;;;;10.57;7.93;;;;;;;7.23;91.57;93707.41;513682;28;926;-56
2023/05/05 01:23:03;;;;;;;11.93;8.00;;;;;;;7.27;91.63;93708.59;511785;29;1555;-55
2023/05/05 01:23:47;;;;;;;12.00;8.00;;;;;;;7.31;91.65;93709.03;509851;29;835;-54
2023/05/05 01:24:24;;;;;;;11.73;7.53;;;;;;;7.31;91.24;93703.53;509888;29;892;-55
2023/05/05 01:24:54;;;;;;;11.90;8.10;;;;;;;7.40;91.25;93705.91;511817;29;894;-56
2023/05/05 01:25:18;;;;;;;11.85;8.85;;;;;;;7.42;91.11;93706.13;512419;28;834;-56
2023/05/05 01:25:51;;;;;;;11.27;8.50;;;;;;;7.44;91.09;93700.09;513750;28;903;-55
2023/05/05 01:26:06;;;;;;;10.77;8.85;;;;;;;7.47;91.07;93707.28;511897;29;868;-54
2023/05/05 01:26:58;;;;;;;11.60;9.32;;;;;;;7.56;90.91;93706.88;511762;29;853;-56
2023/05/05 01:27:22;;;;;;;14.15;9.98;;;;;;;7.60;90.83;93708.06;511615;28;1068;-56
2023/05/05 01:27:48;;;;;;;12.50;9.13;;;;;;;7.60;90.80;93705.31;511714;29;865;-54